sensor_id;sensor_type;location;lat;lon;timestamp;pressure;altitude;pressure_sealevel;temperature;humidity
19457;BME280;9867;48.094;11.478;2022-10-17T00:00:50;95798.16;;;13.91;100.00
19457;BME280;9867;48.094;11.478;2022-10-17T00:03:18;95793.59;;;13.87;100.00
19457;BME280;9867;48.094;11.478;2022-10-17T00:05:47;95799.34;;;13.82;100.00
19457;BME280;9867;48.094;11.478;2022-10-17T00:08:16;95807.69;;;13.84;100.00
19457;BME280;9867;48.094;11.478;2022-10-17T00:10:44;95804.09;;;13.79;100.00
19457;BME280;9867;48.094;11.478;2022-10-17T00:13:12;95804.91;;;13.66;100.00
19457;BME280;9867;48.094;11.478;2022-10-17T00:15:43;95803.91;;;13.60;100.00
19457;BME280;9867;48.094;11.478;2022-10-17T00:18:11;95804.50;;;13.56;100.00
19457;BME280;9867;48.094;11.478;2022-10-17T00:20:39;95805.31;;;13.56;100.00
19457;BME280;9867;48.094;11.478;2022-10-17T00:23:08;95801.53;;;13.59;100.00
19457;BME280;9867;48.094;11.478;2022-10-17T00:25:36;95806.31;;;13.62;100.00
19457;BME280;9867;48.094;11.478;2022-10-17T00:28:04;95799.75;;;13.59;100.00
19457;BME280;9867;48.094;11.478;2022-10-17T00:30:32;95807.31;;;13.68;100.00
19457;BME280;9867;48.094;11.478;2022-10-17T00:33:02;95803.13;;;13.53;100.00
19457;BME280;9867;48.094;11.478;2022-10-17T00:35:30;95799.53;;;13.54;100.00
19457;BME280;9867;48.094;11.478;2022-10-17T00:37:58;95807.47;;;13.53;100.00
19457;BME280;9867;48.094;11.478;2022-10-17T00:40:26;95808.06;;;13.48;100.00
19457;BME280;9867;48.094;11.478;2022-10-17T00:42:54;95807.25;;;13.48;100.00
19457;BME280;9867;48.094;11.478;2022-10-17T00:45:23;95810.06;;;13.46;100.00
19457;BME280;9867;48.094;11.478;2022-10-17T00:47:54;95810.25;;;13.45;100.00
19457;BME280;9867;48.094;11.478;2022-10-17T00:50:26;95805.09;;;13.38;100.00
19457;BME280;9867;48.094;11.478;2022-10-17T00:52:58;95813.41;;;13.27;100.00
19457;BME280;9867;48.094;11.478;2022-10-17T00:55:31;95816.97;;;13.19;100.00
19457;BME280;9867;48.094;11.478;2022-10-17T00:58:01;95813.19;;;13.15;100.00
19457;BME280;9867;48.094;11.478;2022-10-17T01:00:30;95816.13;;;13.12;100.00
19457;BME280;9867;48.094;11.478;2022-10-17T01:02:58;95816.13;;;13.12;100.00
19457;BME280;9867;48.094;11.478;2022-10-17T01:05:30;95819.88;;;13.10;100.00
19457;BME280;9867;48.094;11.478;2022-10-17T01:07:58;95820.88;;;13.09;100.00
19457;BME280;9867;48.094;11.478;2022-10-17T01:10:29;95825.22;;;13.08;100.00
19457;BME280;9867;48.094;11.478;2022-10-17T01:13:07;95825.63;;;12.98;100.00
19457;BME280;9867;48.094;11.478;2022-10-17T01:15:47;95825.00;;;12.96;100.00
19457;BME280;9867;48.094;11.478;2022-10-17T01:18:26;95827.94;;;12.87;100.00
19457;BME280;9867;48.094;11.478;2022-10-17T01:24:47;95809.66;;;12.69;100.00
19457;BME280;9867;48.094;11.478;2022-10-17T01:27:35;95821.13;;;12.66;100.00
19457;BME280;9867;48.094;11.478;2022-10-17T01:30:27;95809.06;;;12.67;100.00
19457;BME280;9867;48.094;11.478;2022-10-17T01:33:05;95814.84;;;12.75;100.00
19457;BME280;9867;48.094;11.478;2022-10-17T01:35:38;95811.31;;;12.89;100.00
19457;BME280;9867;48.094;11.478;2022-10-17T01:38:11;95812.53;;;12.93;100.00
19457;BME280;9867;48.094;11.478;2022-10-17T01:40:45;95811.72;;;12.93;100.00
19457;BME280;9867;48.094;11.478;2022-10-17T01:43:20;95814.53;;;13.11;100.00
19457;BME280;9867;48.094;11.478;2022-10-17T01:45:52;95811.75;;;13.13;100.00
19457;BME280;9867;48.094;11.478;2022-10-17T01:48:30;95822.25;;;12.98;100.00
19457;BME280;9867;48.094;11.478;2022-10-17T01:51:05;95821.00;;;12.87;100.00
19457;BME280;9867;48.094;11.478;2022-10-17T01:53:37;95815.66;;;12.89;100.00
19457;BME280;9867;48.094;11.478;2022-10-17T01:56:08;95820.81;;;12.89;100.00
19457;BME280;9867;48.094;11.478;2022-10-17T01:58:42;95806.97;;;12.90;100.00
19457;BME280;9867;48.094;11.478;2022-10-17T02:01:14;95818.22;;;12.82;100.00
19457;BME280;9867;48.094;11.478;2022-10-17T02:03:45;95807.31;;;12.74;100.00
19457;BME280;9867;48.094;11.478;2022-10-17T02:06:15;95798.69;;;12.53;100.00
19457;BME280;9867;48.094;11.478;2022-10-17T02:08:45;95814.94;;;12.54;100.00
19457;BME280;9867;48.094;11.478;2022-10-17T02:11:16;95821.28;;;12.58;100.00
19457;BME280;9867;48.094;11.478;2022-10-17T02:16:42;95815.81;;;12.74;100.00
19457;BME280;9867;48.094;11.478;2022-10-17T02:22:14;95813.91;;;12.96;100.00
19457;BME280;9867;48.094;11.478;2022-10-17T02:24:48;95813.53;;;12.99;100.00
19457;BME280;9867;48.094;11.478;2022-10-17T02:27:24;95809.78;;;13.08;100.00
19457;BME280;9867;48.094;11.478;2022-10-17T02:30:00;95816.50;;;13.03;100.00
19457;BME280;9867;48.094;11.478;2022-10-17T02:32:34;95823.44;;;12.95;100.00
19457;BME280;9867;48.094;11.478;2022-10-17T02:35:07;95821.81;;;12.88;100.00
19457;BME280;9867;48.094;11.478;2022-10-17T02:37:37;95817.84;;;12.85;100.00
19457;BME280;9867;48.094;11.478;2022-10-17T02:40:09;95816.63;;;12.81;100.00
19457;BME280;9867;48.094;11.478;2022-10-17T02:42:42;95813.63;;;12.78;100.00
19457;BME280;9867;48.094;11.478;2022-10-17T02:45:12;95814.63;;;12.77;100.00
19457;BME280;9867;48.094;11.478;2022-10-17T02:47:49;95816.84;;;12.86;100.00
19457;BME280;9867;48.094;11.478;2022-10-17T02:50:24;95805.19;;;12.90;100.00
19457;BME280;9867;48.094;11.478;2022-10-17T02:53:04;95806.00;;;12.97;100.00
19457;BME280;9867;48.094;11.478;2022-10-17T02:55:38;95804.00;;;13.06;100.00
19457;BME280;9867;48.094;11.478;2022-10-17T02:58:10;95808.00;;;13.09;100.00
19457;BME280;9867;48.094;11.478;2022-10-17T03:00:40;95807.16;;;13.02;100.00
19457;BME280;9867;48.094;11.478;2022-10-17T03:03:19;95806.00;;;12.97;100.00
19457;BME280;9867;48.094;11.478;2022-10-17T03:05:49;95808.16;;;13.01;100.00
19457;BME280;9867;48.094;11.478;2022-10-17T03:08:20;95802.22;;;12.93;100.00
19457;BME280;9867;48.094;11.478;2022-10-17T03:10:48;95810.72;;;12.87;100.00
19457;BME280;9867;48.094;11.478;2022-10-17T03:13:18;95821.97;;;12.80;100.00
19457;BME280;9867;48.094;11.478;2022-10-17T03:15:46;95819.16;;;12.68;100.00
19457;BME280;9867;48.094;11.478;2022-10-17T03:18:13;95813.00;;;12.62;100.00
19457;BME280;9867;48.094;11.478;2022-10-17T03:20:42;95819.16;;;12.68;100.00
19457;BME280;9867;48.094;11.478;2022-10-17T03:23:11;95806.22;;;12.48;100.00
19457;BME280;9867;48.094;11.478;2022-10-17T03:25:39;95821.31;;;12.64;100.00
19457;BME280;9867;48.094;11.478;2022-10-17T03:28:08;95819.16;;;12.68;100.00
19457;BME280;9867;48.094;11.478;2022-10-17T03:30:37;95827.72;;;12.75;100.00
19457;BME280;9867;48.094;11.478;2022-10-17T03:33:05;95830.88;;;12.71;100.00
19457;BME280;9867;48.094;11.478;2022-10-17T03:35:33;95835.63;;;12.74;100.00
19457;BME280;9867;48.094;11.478;2022-10-17T03:38:05;95828.09;;;12.72;100.00
19457;BME280;9867;48.094;11.478;2022-10-17T03:40:35;95833.25;;;12.79;100.00
19457;BME280;9867;48.094;11.478;2022-10-17T03:43:04;95837.22;;;12.75;100.00
19457;BME280;9867;48.094;11.478;2022-10-17T03:45:32;95840.78;;;12.74;100.00
19457;BME280;9867;48.094;11.478;2022-10-17T03:48:00;95834.66;;;12.75;100.00
19457;BME280;9867;48.094;11.478;2022-10-17T03:50:29;95828.06;;;12.66;100.00
19457;BME280;9867;48.094;11.478;2022-10-17T03:52:57;95834.00;;;12.66;100.00
19457;BME280;9867;48.094;11.478;2022-10-17T03:55:25;95827.69;;;12.69;100.00
19457;BME280;9867;48.094;11.478;2022-10-17T03:57:55;95835.81;;;12.72;100.00
19457;BME280;9867;48.094;11.478;2022-10-17T04:00:22;95830.03;;;12.63;100.00
19457;BME280;9867;48.094;11.478;2022-10-17T04:02:56;95837.78;;;12.70;100.00
19457;BME280;9867;48.094;11.478;2022-10-17T04:05:25;95835.38;;;12.62;100.00
19457;BME280;9867;48.094;11.478;2022-10-17T04:07:53;95839.91;;;12.60;100.00
19457;BME280;9867;48.094;11.478;2022-10-17T04:10:31;95837.72;;;12.50;100.00
19457;BME280;9867;48.094;11.478;2022-10-17T04:13:00;95836.50;;;12.53;100.00
19457;BME280;9867;48.094;11.478;2022-10-17T04:15:29;95839.69;;;12.55;100.00
19457;BME280;9867;48.094;11.478;2022-10-17T04:17:56;95845.44;;;12.50;100.00
19457;BME280;9867;48.094;11.478;2022-10-17T04:20:24;95848.91;;;12.36;100.00
19457;BME280;9867;48.094;11.478;2022-10-17T04:22:52;95851.25;;;12.31;100.00
19457;BME280;9867;48.094;11.478;2022-10-17T04:25:20;95841.38;;;12.35;100.00
19457;BME280;9867;48.094;11.478;2022-10-17T04:27:50;95844.53;;;12.37;100.00
19457;BME280;9867;48.094;11.478;2022-10-17T04:30:19;95846.38;;;12.43;100.00
19457;BME280;9867;48.094;11.478;2022-10-17T04:32:47;95838.97;;;12.33;100.00
19457;BME280;9867;48.094;11.478;2022-10-17T04:35:19;95845.53;;;12.36;100.00
19457;BME280;9867;48.094;11.478;2022-10-17T04:37:53;95852.50;;;12.42;100.00
19457;BME280;9867;48.094;11.478;2022-10-17T04:40:21;95856.00;;;12.27;100.00
19457;BME280;9867;48.094;11.478;2022-10-17T04:42:51;95857.44;;;12.09;100.00
19457;BME280;9867;48.094;11.478;2022-10-17T04:45:25;95845.41;;;12.16;100.00
19457;BME280;9867;48.094;11.478;2022-10-17T04:47:57;95845.97;;;12.11;100.00
19457;BME280;9867;48.094;11.478;2022-10-17T04:50:25;95853.94;;;12.16;100.00
19457;BME280;9867;48.094;11.478;2022-10-17T04:53:23;95856.97;;;12.26;100.00
19457;BME280;9867;48.094;11.478;2022-10-17T04:55:50;95862.25;;;12.18;100.00
19457;BME280;9867;48.094;11.478;2022-10-17T04:58:19;95860.09;;;12.22;100.00
19457;BME280;9867;48.094;11.478;2022-10-17T05:00:49;95855.56;;;12.24;100.00
19457;BME280;9867;48.094;11.478;2022-10-17T05:03:24;95860.97;;;12.36;100.00
19457;BME280;9867;48.094;11.478;2022-10-17T05:05:52;95867.66;;;12.30;100.00
19457;BME280;9867;48.094;11.478;2022-10-17T05:08:21;95869.84;;;12.26;100.00
19457;BME280;9867;48.094;11.478;2022-10-17T05:10:49;95857.38;;;12.30;100.00
19457;BME280;9867;48.094;11.478;2022-10-17T05:13:19;95864.28;;;12.23;100.00
19457;BME280;9867;48.094;11.478;2022-10-17T05:15:46;95859.06;;;12.16;100.00
19457;BME280;9867;48.094;11.478;2022-10-17T05:18:16;95867.59;;;12.17;100.00
19457;BME280;9867;48.094;11.478;2022-10-17T05:20:44;95864.91;;;12.32;100.00
19457;BME280;9867;48.094;11.478;2022-10-17T05:23:12;95867.91;;;12.35;100.00
19457;BME280;9867;48.094;11.478;2022-10-17T05:25:42;95861.31;;;12.26;100.00
19457;BME280;9867;48.094;11.478;2022-10-17T05:28:10;95861.72;;;12.29;100.00
19457;BME280;9867;48.094;11.478;2022-10-17T05:30:40;95876.16;;;12.24;100.00
19457;BME280;9867;48.094;11.478;2022-10-17T05:33:08;95875.53;;;12.22;100.00
19457;BME280;9867;48.094;11.478;2022-10-17T05:35:37;95877.69;;;12.18;100.00
19457;BME280;9867;48.094;11.478;2022-10-17T05:38:06;95891.56;;;11.96;100.00
19457;BME280;9867;48.094;11.478;2022-10-17T05:40:35;95882.75;;;11.62;100.00
19457;BME280;9867;48.094;11.478;2022-10-17T05:43:04;95883.25;;;11.51;100.00
19457;BME280;9867;48.094;11.478;2022-10-17T05:45:32;95891.44;;;11.40;100.00
19457;BME280;9867;48.094;11.478;2022-10-17T05:48:00;95891.69;;;11.45;100.00
19457;BME280;9867;48.094;11.478;2022-10-17T05:50:28;95899.16;;;11.61;100.00
19457;BME280;9867;48.094;11.478;2022-10-17T05:53:16;95916.16;;;11.62;100.00
19457;BME280;9867;48.094;11.478;2022-10-17T05:55:54;95910.91;;;11.71;100.00
19457;BME280;9867;48.094;11.478;2022-10-17T05:58:22;95920.81;;;11.74;100.00
19457;BME280;9867;48.094;11.478;2022-10-17T06:01:21;95921.81;;;11.73;100.00
19457;BME280;9867;48.094;11.478;2022-10-17T06:03:50;95921.94;;;11.86;100.00
19457;BME280;9867;48.094;11.478;2022-10-17T06:06:18;95931.31;;;11.93;100.00
19457;BME280;9867;48.094;11.478;2022-10-17T06:08:48;95932.28;;;11.92;100.00
19457;BME280;9867;48.094;11.478;2022-10-17T06:11:21;95923.22;;;11.97;100.00
19457;BME280;9867;48.094;11.478;2022-10-17T06:13:49;95927.25;;;12.06;100.00
19457;BME280;9867;48.094;11.478;2022-10-17T06:16:22;95929.88;;;12.12;100.00
19457;BME280;9867;48.094;11.478;2022-10-17T06:18:50;95926.81;;;12.58;100.00
19457;BME280;9867;48.094;11.478;2022-10-17T06:21:23;95926.13;;;12.71;100.00
19457;BME280;9867;48.094;11.478;2022-10-17T06:24:00;95930.13;;;12.80;100.00
19457;BME280;9867;48.094;11.478;2022-10-17T06:26:34;95931.41;;;12.97;100.00
19457;BME280;9867;48.094;11.478;2022-10-17T06:29:05;95930.09;;;13.14;100.00
19457;BME280;9867;48.094;11.478;2022-10-17T06:31:37;95931.94;;;13.27;100.00
19457;BME280;9867;48.094;11.478;2022-10-17T06:34:05;95937.53;;;13.37;100.00
19457;BME280;9867;48.094;11.478;2022-10-17T06:36:33;95932.53;;;13.29;100.00
19457;BME280;9867;48.094;11.478;2022-10-17T06:39:03;95936.03;;;13.15;100.00
19457;BME280;9867;48.094;11.478;2022-10-17T06:41:54;95934.56;;;13.47;100.00
19457;BME280;9867;48.094;11.478;2022-10-17T06:44:36;95937.38;;;13.45;100.00
19457;BME280;9867;48.094;11.478;2022-10-17T06:47:28;95939.53;;;13.42;100.00
19457;BME280;9867;48.094;11.478;2022-10-17T06:50:00;95950.66;;;13.55;100.00
19457;BME280;9867;48.094;11.478;2022-10-17T06:52:39;95948.13;;;13.75;100.00
19457;BME280;9867;48.094;11.478;2022-10-17T06:55:29;95957.63;;;13.61;100.00
19457;BME280;9867;48.094;11.478;2022-10-17T06:58:15;95965.78;;;13.78;100.00
19457;BME280;9867;48.094;11.478;2022-10-17T07:00:57;95965.22;;;13.89;100.00
19457;BME280;9867;48.094;11.478;2022-10-17T07:03:27;95977.13;;;13.90;100.00
19457;BME280;9867;48.094;11.478;2022-10-17T07:05:55;95973.75;;;13.90;100.00
19457;BME280;9867;48.094;11.478;2022-10-17T07:08:24;95982.09;;;13.92;100.00
19457;BME280;9867;48.094;11.478;2022-10-17T07:10:54;95973.34;;;13.86;100.00
19457;BME280;9867;48.094;11.478;2022-10-17T07:13:22;95975.16;;;13.86;100.00
19457;BME280;9867;48.094;11.478;2022-10-17T07:15:50;95978.13;;;13.96;100.00
19457;BME280;9867;48.094;11.478;2022-10-17T07:18:18;95983.69;;;14.06;100.00
19457;BME280;9867;48.094;11.478;2022-10-17T07:20:52;95989.09;;;14.38;100.00
19457;BME280;9867;48.094;11.478;2022-10-17T07:23:21;95991.09;;;14.62;100.00
19457;BME280;9867;48.094;11.478;2022-10-17T07:25:49;96000.81;;;14.73;100.00
19457;BME280;9867;48.094;11.478;2022-10-17T07:28:18;95994.81;;;14.99;100.00
19457;BME280;9867;48.094;11.478;2022-10-17T07:30:46;95999.91;;;15.19;100.00
19457;BME280;9867;48.094;11.478;2022-10-17T07:33:20;96007.25;;;15.35;100.00
19457;BME280;9867;48.094;11.478;2022-10-17T07:35:48;96010.25;;;15.19;100.00
19457;BME280;9867;48.094;11.478;2022-10-17T07:38:18;96015.81;;;15.29;100.00
19457;BME280;9867;48.094;11.478;2022-10-17T07:40:52;96019.19;;;15.29;100.00
19457;BME280;9867;48.094;11.478;2022-10-17T07:43:22;96015.94;;;15.47;100.00
19457;BME280;9867;48.094;11.478;2022-10-17T07:45:52;96020.72;;;15.57;100.00
19457;BME280;9867;48.094;11.478;2022-10-17T07:48:22;96026.19;;;15.74;100.00
19457;BME280;9867;48.094;11.478;2022-10-17T07:50:50;96019.84;;;15.69;100.00
19457;BME280;9867;48.094;11.478;2022-10-17T07:53:18;96019.63;;;15.78;100.00
19457;BME280;9867;48.094;11.478;2022-10-17T07:55:46;96028.03;;;16.05;100.00
19457;BME280;9867;48.094;11.478;2022-10-17T07:58:15;96020.38;;;16.16;100.00
19457;BME280;9867;48.094;11.478;2022-10-17T08:00:44;96027.75;;;16.19;100.00
19457;BME280;9867;48.094;11.478;2022-10-17T08:03:14;96036.00;;;16.34;100.00
19457;BME280;9867;48.094;11.478;2022-10-17T08:05:43;96033.16;;;16.43;100.00
19457;BME280;9867;48.094;11.478;2022-10-17T08:08:10;96047.16;;;16.66;100.00
19457;BME280;9867;48.094;11.478;2022-10-17T08:10:38;96036.75;;;16.73;100.00
19457;BME280;9867;48.094;11.478;2022-10-17T08:13:06;96040.06;;;16.80;100.00
19457;BME280;9867;48.094;11.478;2022-10-17T08:15:36;96034.25;;;16.85;100.00
19457;BME280;9867;48.094;11.478;2022-10-17T08:18:05;96031.81;;;16.90;100.00
19457;BME280;9867;48.094;11.478;2022-10-17T08:20:33;96033.56;;;16.96;100.00
19457;BME280;9867;48.094;11.478;2022-10-17T08:23:01;96031.56;;;17.16;100.00
19457;BME280;9867;48.094;11.478;2022-10-17T08:25:28;96030.03;;;17.27;100.00
19457;BME280;9867;48.094;11.478;2022-10-17T08:27:57;96033.56;;;17.32;100.00
19457;BME280;9867;48.094;11.478;2022-10-17T08:30:24;96028.75;;;17.36;100.00
19457;BME280;9867;48.094;11.478;2022-10-17T08:32:53;96032.84;;;17.44;100.00
19457;BME280;9867;48.094;11.478;2022-10-17T08:35:23;96036.09;;;17.57;100.00
19457;BME280;9867;48.094;11.478;2022-10-17T08:37:50;96031.25;;;17.61;100.00
19457;BME280;9867;48.094;11.478;2022-10-17T08:40:22;96036.53;;;17.72;100.00
19457;BME280;9867;48.094;11.478;2022-10-17T08:43:06;96029.81;;;17.83;100.00
19457;BME280;9867;48.094;11.478;2022-10-17T08:45:41;96033.00;;;17.97;100.00
19457;BME280;9867;48.094;11.478;2022-10-17T08:48:14;96036.75;;;18.01;100.00
19457;BME280;9867;48.094;11.478;2022-10-17T08:50:48;96038.00;;;17.98;100.00
19457;BME280;9867;48.094;11.478;2022-10-17T08:53:20;96042.44;;;18.10;100.00
19457;BME280;9867;48.094;11.478;2022-10-17T08:55:50;96036.38;;;18.16;100.00
19457;BME280;9867;48.094;11.478;2022-10-17T08:58:21;96049.59;;;18.26;100.00
19457;BME280;9867;48.094;11.478;2022-10-17T09:00:59;96050.63;;;18.25;100.00
19457;BME280;9867;48.094;11.478;2022-10-17T09:03:41;96040.22;;;18.25;100.00
19457;BME280;9867;48.094;11.478;2022-10-17T09:06:20;96046.13;;;18.32;100.00
19457;BME280;9867;48.094;11.478;2022-10-17T09:09:05;96037.31;;;18.33;100.00
19457;BME280;9867;48.094;11.478;2022-10-17T09:11:46;96053.75;;;18.57;100.00
19457;BME280;9867;48.094;11.478;2022-10-17T09:17:19;96048.25;;;18.65;100.00
19457;BME280;9867;48.094;11.478;2022-10-17T09:19:57;96041.13;;;18.72;100.00
19457;BME280;9867;48.094;11.478;2022-10-17T09:22:31;96052.56;;;18.83;100.00
19457;BME280;9867;48.094;11.478;2022-10-17T09:25:02;96054.81;;;18.91;100.00
19457;BME280;9867;48.094;11.478;2022-10-17T09:27:35;96056.09;;;18.88;100.00
19457;BME280;9867;48.094;11.478;2022-10-17T09:30:35;96046.69;;;18.87;100.00
19457;BME280;9867;48.094;11.478;2022-10-17T09:33:14;96051.53;;;18.95;100.00
19457;BME280;9867;48.094;11.478;2022-10-17T09:36:04;96056.19;;;19.05;100.00
19457;BME280;9867;48.094;11.478;2022-10-17T09:38:39;96052.56;;;19.18;100.00
19457;BME280;9867;48.094;11.478;2022-10-17T09:41:15;96056.63;;;19.25;100.00
19457;BME280;9867;48.094;11.478;2022-10-17T09:44:13;96054.47;;;19.34;100.00
19457;BME280;9867;48.094;11.478;2022-10-17T09:46:44;96058.34;;;19.31;100.00
19457;BME280;9867;48.094;11.478;2022-10-17T09:49:17;96058.00;;;19.51;100.00
19457;BME280;9867;48.094;11.478;2022-10-17T09:51:46;96045.72;;;19.63;100.00
19457;BME280;9867;48.094;11.478;2022-10-17T09:54:19;96054.19;;;19.82;100.00
19457;BME280;9867;48.094;11.478;2022-10-17T09:57:00;96062.88;;;19.88;100.00
19457;BME280;9867;48.094;11.478;2022-10-17T09:59:31;96056.50;;;19.95;100.00
19457;BME280;9867;48.094;11.478;2022-10-17T10:02:15;96060.41;;;20.09;100.00
19457;BME280;9867;48.094;11.478;2022-10-17T10:04:55;96061.72;;;20.24;100.00
19457;BME280;9867;48.094;11.478;2022-10-17T10:07:35;96052.47;;;20.33;100.00
19457;BME280;9867;48.094;11.478;2022-10-17T10:10:07;96062.09;;;20.44;100.00
19457;BME280;9867;48.094;11.478;2022-10-17T10:13:02;96064.84;;;20.37;100.00
19457;BME280;9867;48.094;11.478;2022-10-17T10:15:33;96076.63;;;20.40;100.00
19457;BME280;9867;48.094;11.478;2022-10-17T10:18:27;96074.09;;;20.45;100.00
19457;BME280;9867;48.094;11.478;2022-10-17T10:21:09;96072.44;;;20.39;100.00
19457;BME280;9867;48.094;11.478;2022-10-17T10:23:38;96073.50;;;20.55;100.00
19457;BME280;9867;48.094;11.478;2022-10-17T10:26:24;96059.34;;;20.67;100.00
19457;BME280;9867;48.094;11.478;2022-10-17T10:28:57;96060.53;;;20.93;100.00
19457;BME280;9867;48.094;11.478;2022-10-17T10:31:32;96063.28;;;21.03;100.00
19457;BME280;9867;48.094;11.478;2022-10-17T10:34:11;96067.88;;;20.96;100.00
19457;BME280;9867;48.094;11.478;2022-10-17T10:36:43;96066.50;;;21.10;100.00
19457;BME280;9867;48.094;11.478;2022-10-17T10:42:20;96054.56;;;21.31;100.00
19457;BME280;9867;48.094;11.478;2022-10-17T10:44:49;96062.41;;;21.15;100.00
19457;BME280;9867;48.094;11.478;2022-10-17T10:47:21;96062.53;;;21.41;100.00
19457;BME280;9867;48.094;11.478;2022-10-17T10:49:52;96053.50;;;21.49;100.00
19457;BME280;9867;48.094;11.478;2022-10-17T10:52:39;96060.59;;;21.54;100.00
19457;BME280;9867;48.094;11.478;2022-10-17T10:55:18;96057.44;;;21.73;100.00
19457;BME280;9867;48.094;11.478;2022-10-17T10:57:55;96060.84;;;21.74;100.00
19457;BME280;9867;48.094;11.478;2022-10-17T11:00:30;96072.94;;;21.80;100.00
19457;BME280;9867;48.094;11.478;2022-10-17T11:03:05;96057.69;;;21.94;100.00
19457;BME280;9867;48.094;11.478;2022-10-17T11:05:42;96057.31;;;21.85;100.00
19457;BME280;9867;48.094;11.478;2022-10-17T11:08:17;96057.31;;;22.07;100.00
19457;BME280;9867;48.094;11.478;2022-10-17T11:10:58;96053.44;;;22.09;100.00
19457;BME280;9867;48.094;11.478;2022-10-17T11:13:33;96045.78;;;22.30;100.00
19457;BME280;9867;48.094;11.478;2022-10-17T11:16:15;96060.13;;;22.54;100.00
19457;BME280;9867;48.094;11.478;2022-10-17T11:18:49;96054.97;;;22.64;100.00
19457;BME280;9867;48.094;11.478;2022-10-17T11:21:25;96050.94;;;22.52;100.00
19457;BME280;9867;48.094;11.478;2022-10-17T11:23:59;96042.16;;;22.63;97.80
19457;BME280;9867;48.094;11.478;2022-10-17T11:26:38;96051.34;;;22.70;94.95
19457;BME280;9867;48.094;11.478;2022-10-17T11:29:11;96054.41;;;22.89;96.38
19457;BME280;9867;48.094;11.478;2022-10-17T11:31:43;96049.19;;;22.89;87.24
19457;BME280;9867;48.094;11.478;2022-10-17T11:34:15;96058.19;;;22.76;85.82
19457;BME280;9867;48.094;11.478;2022-10-17T11:36:47;96051.34;;;22.70;86.86
19457;BME280;9867;48.094;11.478;2022-10-17T11:39:19;96055.13;;;22.79;80.51
19457;BME280;9867;48.094;11.478;2022-10-17T11:41:52;96039.81;;;22.98;80.75
19457;BME280;9867;48.094;11.478;2022-10-17T11:44:26;96048.34;;;23.26;74.79
19457;BME280;9867;48.094;11.478;2022-10-17T11:47:00;96039.25;;;23.38;77.86
19457;BME280;9867;48.094;11.478;2022-10-17T11:49:33;96040.19;;;23.69;73.07
19457;BME280;9867;48.094;11.478;2022-10-17T11:52:20;96043.91;;;23.78;79.40
19457;BME280;9867;48.094;11.478;2022-10-17T11:55:15;96036.00;;;23.68;66.92
19457;BME280;9867;48.094;11.478;2022-10-17T11:57:53;96046.72;;;23.57;69.05
19457;BME280;9867;48.094;11.478;2022-10-17T12:00:41;96037.31;;;23.71;70.48
19457;BME280;9867;48.094;11.478;2022-10-17T12:03:25;96039.00;;;24.02;67.18
19457;BME280;9867;48.094;11.478;2022-10-17T12:06:01;96038.16;;;23.92;69.90
19457;BME280;9867;48.094;11.478;2022-10-17T12:08:33;96037.69;;;24.10;66.14
19457;BME280;9867;48.094;11.478;2022-10-17T12:11:09;96039.00;;;24.18;68.51
19457;BME280;9867;48.094;11.478;2022-10-17T12:13:50;96040.31;;;24.10;65.79
19457;BME280;9867;48.094;11.478;2022-10-17T12:16:49;96035.88;;;24.21;63.01
19457;BME280;9867;48.094;11.478;2022-10-17T12:19:32;96035.84;;;24.00;66.57
19457;BME280;9867;48.094;11.478;2022-10-17T12:24:58;96029.63;;;24.72;64.00
19457;BME280;9867;48.094;11.478;2022-10-17T12:27:41;96033.06;;;24.53;50.32
19457;BME280;9867;48.094;11.478;2022-10-17T12:30:25;96029.88;;;24.35;48.20
19457;BME280;9867;48.094;11.478;2022-10-17T12:32:58;96026.75;;;24.43;47.43
19457;BME280;9867;48.094;11.478;2022-10-17T12:35:34;96034.63;;;24.74;48.59
19457;BME280;9867;48.094;11.478;2022-10-17T12:38:22;96036.97;;;24.80;48.25
19457;BME280;9867;48.094;11.478;2022-10-17T12:40:58;96029.63;;;24.57;47.05
19457;BME280;9867;48.094;11.478;2022-10-17T12:43:53;96019.16;;;24.77;49.06
19457;BME280;9867;48.094;11.478;2022-10-17T12:46:43;96031.47;;;24.97;46.23
19457;BME280;9867;48.094;11.478;2022-10-17T12:49:36;96027.78;;;25.13;45.70
19457;BME280;9867;48.094;11.478;2022-10-17T12:55:11;96032.44;;;25.42;48.95
19457;BME280;9867;48.094;11.478;2022-10-17T12:57:53;96024.78;;;25.51;51.16
19457;BME280;9867;48.094;11.478;2022-10-17T13:00:27;96031.50;;;25.82;53.23
19457;BME280;9867;48.094;11.478;2022-10-17T13:03:04;96030.41;;;25.93;55.00
19457;BME280;9867;48.094;11.478;2022-10-17T13:05:36;96029.78;;;25.47;52.57
19457;BME280;9867;48.094;11.478;2022-10-17T13:08:07;96020.28;;;25.51;58.81
19457;BME280;9867;48.094;11.478;2022-10-17T13:10:40;96028.94;;;25.62;54.09
19457;BME280;9867;48.094;11.478;2022-10-17T13:13:19;96020.69;;;25.89;52.75
19457;BME280;9867;48.094;11.478;2022-10-17T13:15:49;96019.66;;;25.85;50.73
19457;BME280;9867;48.094;11.478;2022-10-17T13:18:19;96020.97;;;25.82;53.43
19457;BME280;9867;48.094;11.478;2022-10-17T13:20:58;96030.84;;;25.41;45.70
19457;BME280;9867;48.094;11.478;2022-10-17T13:23:30;96012.66;;;25.65;46.07
19457;BME280;9867;48.094;11.478;2022-10-17T13:26:03;96015.09;;;25.41;45.74
19457;BME280;9867;48.094;11.478;2022-10-17T13:28:31;96023.69;;;25.52;49.97
19457;BME280;9867;48.094;11.478;2022-10-17T13:31:05;96030.34;;;25.39;45.72
19457;BME280;9867;48.094;11.478;2022-10-17T13:33:38;96028.16;;;25.51;46.24
19457;BME280;9867;48.094;11.478;2022-10-17T13:36:13;96025.53;;;25.56;47.35
19457;BME280;9867;48.094;11.478;2022-10-17T13:38:44;96019.47;;;25.66;46.80
19457;BME280;9867;48.094;11.478;2022-10-17T13:41:15;96027.22;;;25.22;44.80
19457;BME280;9867;48.094;11.478;2022-10-17T13:44:08;96023.50;;;25.43;47.82
19457;BME280;9867;48.094;11.478;2022-10-17T13:46:38;96023.16;;;25.60;47.32